Time;durP1;ratioP1;P1;durP2;ratioP2;P2;SDS_P1;SDS_P2;PMS_P1;PMS_P2;Temp;Humidity;BMP_temperature;BMP_pressure;BME280_temperature;BME280_humidity;BME280_pressure;Samples;Min_cycle;Max_cycle;Signal;HPM_P1;HPM_P2
2023/06/15 00:01:52;;;;;;;2.78;1.50;;;23.60;53.80;;;;;;5033636;28;20120;-79
2023/06/15 00:04:18;;;;;;;5.95;1.70;;;23.60;54.20;;;;;;5016346;28;20032;-79
2023/06/15 00:06:44;;;;;;;2.08;1.30;;;23.40;54.60;;;;;;5033281;28;20037;-78
2023/06/15 00:09:10;;;;;;;1.77;1.20;;;23.30;54.70;;;;;;5032157;28;20454;-79
2023/06/15 00:11:35;;;;;;;3.65;1.20;;;23.20;55.30;;;;;;5016002;28;20048;-79
2023/06/15 00:14:01;;;;;;;1.83;1.10;;;23.10;55.60;;;;;;5032176;28;20517;-79
2023/06/15 00:16:31;;;;;;;3.63;1.40;;;23.10;55.80;;;;;;5033497;28;20570;-79
2023/06/15 00:19:01;;;;;;;2.60;1.60;;;23.20;55.80;;;;;;5033495;28;20025;-79
2023/06/15 00:21:33;;;;;;;5.60;1.80;;;23.20;56.20;;;;;;5018249;28;20029;-79
2023/06/15 00:23:59;;;;;;;4.07;1.30;;;23.20;56.60;;;;;;5036763;28;20041;-79
2023/06/15 00:26:26;;;;;;;3.92;1.23;;;23.20;56.50;;;;;;5035953;28;20045;-79
2023/06/15 00:28:52;;;;;;;6.53;1.50;;;23.10;56.80;;;;;;5037175;28;20030;-79
2023/06/15 00:31:17;;;;;;;5.78;2.30;;;23.10;57.10;;;;;;5037392;28;20033;-79
2023/06/15 00:33:43;;;;;;;2.97;1.52;;;23.10;57.50;;;;;;5019394;28;20040;-79
2023/06/15 00:36:12;;;;;;;7.15;1.45;;;23.00;57.70;;;;;;5036963;28;20060;-79
2023/06/15 00:38:38;;;;;;;3.63;0.82;;;23.00;58.40;;;;;;5036076;28;20485;-79
2023/06/15 00:41:03;;;;;;;1.50;1.05;;;22.90;58.30;;;;;;5037004;28;20049;-79
2023/06/15 00:43:29;;;;;;;4.53;1.67;;;23.00;58.30;;;;;;5037136;28;20057;-80
2023/06/15 00:45:55;;;;;;;3.35;1.80;;;23.10;58.60;;;;;;5036719;28;20529;-79
2023/06/15 00:48:21;;;;;;;3.33;1.50;;;23.00;58.80;;;;;;5037040;28;20048;-79
2023/06/15 00:50:47;;;;;;;3.40;1.63;;;23.00;58.90;;;;;;5036442;28;20036;-79
2023/06/15 00:53:12;;;;;;;3.90;1.23;;;23.10;58.80;;;;;;5037008;28;20061;-79
2023/06/15 00:55:39;;;;;;;4.30;1.88;;;23.20;58.80;;;;;;5035367;28;20076;-79
2023/06/15 00:58:06;;;;;;;4.15;1.67;;;23.00;59.70;;;;;;5036563;28;20064;-79
2023/06/15 01:00:32;;;;;;;3.63;1.85;;;22.70;60.20;;;;;;5035210;28;20030;-79
2023/06/15 01:02:59;;;;;;;3.72;1.10;;;22.60;60.50;;;;;;5036518;28;20049;-79
2023/06/15 01:05:25;;;;;;;5.15;1.88;;;22.70;60.10;;;;;;5035192;28;20137;-79
2023/06/15 01:07:52;;;;;;;4.40;1.90;;;22.90;60.20;;;;;;5036370;28;20061;-79
2023/06/15 01:10:21;;;;;;;3.97;1.73;;;22.90;60.00;;;;;;5036392;28;20033;-79
2023/06/15 01:12:50;;;;;;;2.25;1.50;;;23.00;60.10;;;;;;5036374;28;20021;-79
2023/06/15 01:15:16;;;;;;;3.53;1.58;;;22.80;60.20;;;;;;5019014;28;20022;-80
2023/06/15 01:17:45;;;;;;;4.57;1.60;;;22.90;60.00;;;;;;5034964;28;20036;-79
2023/06/15 01:20:24;;;;;;;4.05;1.80;;;22.90;60.10;;;;;;5034660;28;20029;-79
2023/06/15 01:23:10;;;;;;;4.82;1.70;;;22.90;60.30;;;;;;5034906;28;20032;-79
2023/06/15 01:25:45;;;;;;;4.28;1.58;;;22.70;61.30;;;;;;5035263;28;20416;-79
2023/06/15 01:28:15;;;;;;;1.95;1.00;;;22.50;61.60;;;;;;5034722;28;20040;-79
2023/06/15 01:30:43;;;;;;;3.08;1.67;;;22.60;61.50;;;;;;5036345;28;20034;-79
2023/06/15 01:33:10;;;;;;;3.25;1.58;;;22.70;61.30;;;;;;5035362;28;20031;-80
2023/06/15 01:35:36;;;;;;;5.15;1.75;;;22.80;61.00;;;;;;5035880;28;20466;-80
2023/06/15 01:38:02;;;;;;;2.63;1.23;;;22.90;60.80;;;;;;5035622;28;20036;-77
2023/06/15 01:40:30;;;;;;;3.38;1.45;;;23.00;60.70;;;;;;5035631;28;20087;-80
2023/06/15 01:42:57;;;;;;;2.97;1.88;;;23.10;60.40;;;;;;5035586;28;20041;-78
2023/06/15 01:45:24;;;;;;;2.53;1.10;;;23.10;60.80;;;;;;5036238;28;20045;-76
2023/06/15 01:47:51;;;;;;;4.70;2.20;;;23.10;60.90;;;;;;5036291;28;20099;-77
2023/06/15 01:50:18;;;;;;;2.97;1.85;;;22.90;61.40;;;;;;5035706;28;20049;-78
2023/06/15 01:52:44;;;;;;;4.50;1.63;;;22.90;61.50;;;;;;5034471;28;20034;-78
2023/06/15 01:55:10;;;;;;;5.90;2.22;;;22.80;61.50;;;;;;5035712;28;20466;-78
2023/06/15 01:57:38;;;;;;;4.15;1.98;;;22.90;61.70;;;;;;5035283;28;20103;-78
2023/06/15 02:00:06;;;;;;;1.85;1.23;;;22.90;61.60;;;;;;5035803;28;20033;-78
2023/06/15 02:02:32;;;;;;;3.35;1.40;;;22.90;61.40;;;;;;5033924;28;20049;-78
2023/06/15 02:04:57;;;;;;;4.50;1.75;;;23.00;61.40;;;;;;5034075;28;20029;-78
2023/06/15 02:07:23;;;;;;;2.55;1.55;;;23.10;61.20;;;;;;5035172;28;20041;-78
2023/06/15 02:09:49;;;;;;;6.78;2.08;;;23.10;61.00;;;;;;5035277;28;20030;-77
2023/06/15 02:12:15;;;;;;;3.25;2.10;;;23.20;61.00;;;;;;5033909;28;20033;-78
2023/06/15 02:14:40;;;;;;;2.92;1.05;;;23.10;61.70;;;;;;5033771;28;20029;-78
2023/06/15 02:17:06;;;;;;;4.07;1.88;;;22.90;61.70;;;;;;5035014;28;20469;-78
2023/06/15 02:19:32;;;;;;;2.10;1.58;;;22.90;61.70;;;;;;5034064;28;20032;-78
2023/06/15 02:21:58;;;;;;;5.68;1.65;;;22.90;62.00;;;;;;5035072;28;20040;-78
2023/06/15 02:24:23;;;;;;;6.35;2.20;;;22.90;61.90;;;;;;5034904;28;20477;-78
2023/06/15 02:26:49;;;;;;;3.45;1.88;;;22.90;61.80;;;;;;5035013;28;20037;-78
2023/06/15 02:29:15;;;;;;;5.45;1.50;;;23.10;61.90;;;;;;5033669;28;20124;-78
2023/06/15 02:31:41;;;;;;;4.13;2.10;;;23.10;61.80;;;;;;5035316;28;20029;-78
2023/06/15 02:34:06;;;;;;;2.53;1.63;;;23.10;61.90;;;;;;5033532;28;20078;-78
2023/06/15 02:36:34;;;;;;;3.10;1.80;;;23.00;61.90;;;;;;5034725;28;20033;-78
2023/06/15 02:39:00;;;;;;;2.30;1.50;;;23.00;62.00;;;;;;5034597;28;20040;-78
2023/06/15 02:41:26;;;;;;;4.40;2.15;;;23.00;62.10;;;;;;5033099;28;20033;-78
2023/06/15 02:43:52;;;;;;;5.47;2.67;;;22.90;62.50;;;;;;5033340;28;20080;-78
2023/06/15 02:46:18;;;;;;;3.17;1.77;;;22.90;62.90;;;;;;5034299;28;20049;-78
2023/06/15 02:48:44;;;;;;;4.47;2.20;;;22.70;63.00;;;;;;5034786;28;20109;-78
2023/06/15 02:51:10;;;;;;;1.88;1.20;;;22.70;63.20;;;;;;5034971;28;20057;-78
2023/06/15 02:53:36;;;;;;;3.95;2.25;;;22.60;63.30;;;;;;5034629;28;20068;-78
2023/06/15 02:56:03;;;;;;;5.13;1.85;;;22.60;63.30;;;;;;5033062;28;20048;-78
2023/06/15 02:58:32;;;;;;;4.78;1.60;;;22.50;64.10;;;;;;5034785;28;20026;-78
2023/06/15 03:01:00;;;;;;;3.60;1.42;;;22.50;63.70;;;;;;5033128;28;20033;-78
2023/06/15 03:03:27;;;;;;;2.28;1.90;;;22.50;63.40;;;;;;5034167;28;20022;-78
2023/06/15 03:05:54;;;;;;;4.32;1.73;;;22.60;63.30;;;;;;5032737;28;20466;-78
2023/06/15 03:08:20;;;;;;;4.40;1.95;;;22.60;63.30;;;;;;5034084;28;20034;-78
2023/06/15 03:10:46;;;;;;;3.97;2.10;;;22.60;63.20;;;;;;5016278;28;20034;-78
2023/06/15 03:13:12;;;;;;;3.72;2.03;;;22.60;63.20;;;;;;5034031;28;20026;-80
2023/06/15 03:15:38;;;;;;;4.38;2.28;;;22.60;63.30;;;;;;5016311;28;20035;-78
2023/06/15 03:18:04;;;;;;;4.70;2.15;;;22.60;63.20;;;;;;5033949;28;20025;-78
2023/06/15 03:20:32;;;;;;;3.17;1.73;;;22.60;63.10;;;;;;5033917;28;20021;-79
2023/06/15 03:22:59;;;;;;;2.55;1.77;;;22.60;62.90;;;;;;5000653;28;20037;-78
2023/06/15 03:25:25;;;;;;;4.60;1.90;;;22.70;62.70;;;;;;5032432;28;20048;-78
2023/06/15 03:27:53;;;;;;;1.70;1.35;;;22.70;62.50;;;;;;5034043;28;20033;-78
2023/06/15 03:30:20;;;;;;;3.90;2.03;;;22.80;62.50;;;;;;5033970;28;20027;-78
2023/06/15 03:32:47;;;;;;;2.65;1.65;;;22.80;62.40;;;;;;5034022;28;20090;-79
2023/06/15 03:35:14;;;;;;;2.40;1.65;;;22.80;62.30;;;;;;5032386;28;20096;-79
2023/06/15 03:37:39;;;;;;;3.17;1.75;;;22.90;62.30;;;;;;5032267;28;20025;-79
2023/06/15 03:40:06;;;;;;;3.83;1.75;;;22.90;62.20;;;;;;5016180;28;20044;-79
2023/06/15 03:42:32;;;;;;;2.08;1.88;;;22.90;62.10;;;;;;5032729;28;20128;-79
2023/06/15 03:44:58;;;;;;;4.88;1.65;;;23.00;62.00;;;;;;5032353;28;20030;-79
2023/06/15 03:47:25;;;;;;;3.25;1.67;;;22.90;61.90;;;;;;5033708;28;20062;-79
2023/06/15 03:49:50;;;;;;;4.13;2.03;;;22.90;62.00;;;;;;5033053;28;20091;-79
2023/06/15 03:52:16;;;;;;;2.35;1.30;;;22.90;62.00;;;;;;5033504;28;20112;-79
2023/06/15 03:54:42;;;;;;;2.58;1.20;;;22.90;62.00;;;;;;5033446;28;20037;-79
2023/06/15 03:57:07;;;;;;;2.03;1.50;;;22.90;62.10;;;;;;5032903;28;20489;-79
2023/06/15 03:59:33;;;;;;;2.80;1.48;;;22.90;62.10;;;;;;5033400;28;20549;-79
2023/06/15 04:01:59;;;;;;;1.30;1.17;;;22.90;62.00;;;;;;5033398;28;20037;-79
2023/06/15 04:04:24;;;;;;;5.03;1.80;;;22.90;62.60;;;;;;5032239;28;20037;-79
2023/06/15 04:06:52;;;;;;;4.15;1.90;;;22.90;62.00;;;;;;5033181;28;20434;-79
2023/06/15 04:09:18;;;;;;;3.63;2.10;;;22.90;62.20;;;;;;5016363;28;20059;-79
2023/06/15 04:11:44;;;;;;;3.13;1.65;;;22.80;62.20;;;;;;5032061;28;20533;-78
2023/06/15 04:14:11;;;;;;;5.15;2.10;;;22.90;62.20;;;;;;5032483;28;20030;-78
2023/06/15 04:16:37;;;;;;;3.17;1.85;;;22.90;62.10;;;;;;5033373;28;20029;-79
2023/06/15 04:19:03;;;;;;;4.60;1.95;;;22.90;62.00;;;;;;5032408;28;20034;-78
2023/06/15 04:21:28;;;;;;;5.22;1.58;;;22.90;62.00;;;;;;5032123;28;20382;-79
2023/06/15 04:23:55;;;;;;;3.15;1.60;;;22.90;62.00;;;;;;5032020;28;20041;-79
2023/06/15 04:26:21;;;;;;;4.88;1.60;;;22.90;62.00;;;;;;5033426;28;20037;-79
2023/06/15 04:28:49;;;;;;;4.60;1.95;;;22.90;62.00;;;;;;5015464;28;20385;-78
2023/06/15 04:31:17;;;;;;;3.35;2.22;;;23.00;62.00;;;;;;5033740;28;20044;-78
2023/06/15 04:33:44;;;;;;;1.90;1.27;;;22.90;62.00;;;;;;5031882;28;20124;-78
2023/06/15 04:36:14;;;;;;;4.50;2.10;;;22.90;62.10;;;;;;5033449;28;20079;-79
2023/06/15 04:38:46;;;;;;;5.03;2.40;;;22.90;62.20;;;;;;5031944;28;20492;-78
2023/06/15 04:41:12;;;;;;;6.95;2.17;;;22.80;62.30;;;;;;5033250;28;20029;-78
2023/06/15 04:43:38;;;;;;;4.47;2.00;;;22.70;62.50;;;;;;5032257;28;20034;-79
2023/06/15 04:46:03;;;;;;;4.32;2.03;;;22.60;62.90;;;;;;5032589;28;20505;-78
2023/06/15 04:48:29;;;;;;;6.38;2.17;;;22.60;63.00;;;;;;5031669;28;20037;-78
2023/06/15 04:50:56;;;;;;;4.63;2.28;;;22.50;63.20;;;;;;5033299;28;20045;-77
2023/06/15 04:53:22;;;;;;;5.30;2.50;;;22.50;63.30;;;;;;5033099;28;20021;-78
2023/06/15 04:55:50;;;;;;;4.25;2.60;;;22.30;63.80;;;;;;5032675;28;20129;-77
2023/06/15 04:58:17;;;;;;;5.13;2.70;;;22.10;64.20;;;;;;5032985;28;20382;-78
2023/06/15 05:00:43;;;;;;;5.15;2.70;;;21.80;65.10;;;;;;5033188;28;20030;-78
2023/06/15 05:03:08;;;;;;;3.45;1.98;;;21.70;65.70;;;;;;5032908;28;20445;-78
2023/06/15 05:05:34;;;;;;;7.55;3.10;;;21.50;66.10;;;;;;5032555;28;20656;-78
2023/06/15 05:08:00;;;;;;;6.78;3.00;;;21.50;66.10;;;;;;5032996;28;20121;-78
2023/06/15 05:10:25;;;;;;;4.05;2.38;;;21.40;66.40;;;;;;5035245;28;20037;-78
2023/06/15 05:12:51;;;;;;;6.00;2.80;;;21.30;66.60;;;;;;5018641;28;20048;-77
2023/06/15 05:15:17;;;;;;;6.35;3.00;;;21.30;66.70;;;;;;5036439;28;20025;-78
2023/06/15 05:17:43;;;;;;;5.35;2.25;;;21.30;66.60;;;;;;5036088;28;20041;-79
2023/06/15 05:20:10;;;;;;;5.22;2.50;;;21.30;66.60;;;;;;5036803;28;20030;-79
2023/06/15 05:22:35;;;;;;;5.55;2.17;;;21.50;66.50;;;;;;5036221;28;20110;-79
2023/06/15 05:25:02;;;;;;;3.88;2.17;;;21.60;66.10;;;;;;5036112;28;20029;-79
2023/06/15 05:27:28;;;;;;;4.28;2.50;;;21.60;65.90;;;;;;5035957;28;20034;-78
2023/06/15 05:29:54;;;;;;;6.20;2.33;;;21.60;66.00;;;;;;5035754;28;20040;-78
2023/06/15 05:32:20;;;;;;;7.47;2.50;;;21.60;66.20;;;;;;5034751;28;20132;-78
2023/06/15 05:34:46;;;;;;;6.15;2.38;;;21.60;66.20;;;;;;5035958;28;20437;-78
2023/06/15 05:37:11;;;;;;;5.50;2.63;;;21.60;65.90;;;;;;5035797;28;20458;-78
2023/06/15 05:39:37;;;;;;;3.85;1.92;;;21.80;65.70;;;;;;5035927;28;20025;-78
2023/06/15 05:42:03;;;;;;;3.22;2.53;;;21.80;65.70;;;;;;5036103;28;20462;-79
2023/06/15 05:44:28;;;;;;;5.45;2.92;;;21.90;65.50;;;;;;5036129;28;20026;-79
2023/06/15 05:46:54;;;;;;;3.78;2.75;;;21.90;65.00;;;;;;5034171;28;20073;-79
2023/06/15 05:49:20;;;;;;;7.38;2.47;;;21.80;65.10;;;;;;5036025;28;20063;-78
2023/06/15 05:51:45;;;;;;;4.05;2.20;;;21.80;65.10;;;;;;5036159;28;20029;-78
2023/06/15 05:54:11;;;;;;;3.58;2.03;;;21.90;65.10;;;;;;5034228;28;20033;-78
2023/06/15 05:56:37;;;;;;;6.05;3.15;;;22.00;64.90;;;;;;5034892;28;20038;-78
2023/06/15 05:59:02;;;;;;;3.58;2.80;;;22.00;64.80;;;;;;5034357;28;20030;-78
2023/06/15 06:01:28;;;;;;;5.20;2.20;;;21.90;65.00;;;;;;5036175;28;20398;-78
2023/06/15 06:03:54;;;;;;;5.53;2.40;;;22.00;65.20;;;;;;5017697;28;20079;-78
2023/06/15 06:06:19;;;;;;;3.95;2.60;;;22.10;65.20;;;;;;5035613;28;20033;-79
2023/06/15 06:08:46;;;;;;;8.00;3.05;;;22.20;64.50;;;;;;5034072;28;20535;-78
2023/06/15 06:11:11;;;;;;;8.88;3.25;;;22.30;64.10;;;;;;5035677;28;20032;-79
2023/06/15 06:13:37;;;;;;;3.22;1.92;;;22.10;64.10;;;;;;5017895;28;20030;-79
2023/06/15 06:16:03;;;;;;;8.15;2.55;;;22.20;64.20;;;;;;5033921;28;20044;-77
2023/06/15 06:18:29;;;;;;;7.70;3.08;;;22.30;63.90;;;;;;5035223;28;20030;-78
2023/06/15 06:20:55;;;;;;;5.88;2.83;;;22.40;63.80;;;;;;5034205;28;20045;-78
2023/06/15 06:23:21;;;;;;;6.65;2.85;;;22.30;63.80;;;;;;5033708;28;20478;-78
2023/06/15 06:25:46;;;;;;;4.43;2.53;;;22.40;64.00;;;;;;5001033;28;20037;-79
2023/06/15 06:28:12;;;;;;;7.78;2.28;;;22.40;63.90;;;;;;5035396;28;20494;-79
2023/06/15 06:30:38;;;;;;;5.13;2.40;;;22.70;63.80;;;;;;5017442;28;20474;-78
2023/06/15 06:33:04;;;;;;;11.93;2.70;;;22.80;63.20;;;;;;5035318;28;20025;-79
2023/06/15 06:35:30;;;;;;;5.10;2.60;;;22.90;62.30;;;;;;5035202;28;20083;-77
2023/06/15 06:37:56;;;;;;;7.97;2.65;;;23.10;61.70;;;;;;5035034;28;20351;-79
2023/06/15 06:40:21;;;;;;;3.00;2.47;;;23.20;61.30;;;;;;5033967;28;20036;-79
2023/06/15 06:42:47;;;;;;;5.90;2.88;;;23.30;61.50;;;;;;5033442;28;20069;-79
2023/06/15 06:45:13;;;;;;;12.45;2.60;;;23.40;60.60;;;;;;5033945;28;20022;-79
2023/06/15 06:47:38;;;;;;;12.20;3.17;;;23.40;60.20;;;;;;5000351;28;20140;-79
2023/06/15 06:50:07;;;;;;;4.05;2.88;;;23.40;60.60;;;;;;5016942;28;20080;-79
2023/06/15 06:52:33;;;;;;;4.00;2.72;;;23.30;61.60;;;;;;5034836;28;20375;-79
2023/06/15 06:54:59;;;;;;;6.38;2.63;;;23.20;62.10;;;;;;5033277;28;20029;-79
2023/06/15 06:57:25;;;;;;;6.45;3.08;;;23.20;62.20;;;;;;5034696;28;20033;-79
2023/06/15 06:59:50;;;;;;;6.07;2.17;;;23.30;62.00;;;;;;5034832;28;20111;-79
2023/06/15 07:02:16;;;;;;;7.25;2.38;;;23.40;62.00;;;;;;5017130;28;20030;-79
2023/06/15 07:04:41;;;;;;;6.05;2.75;;;23.50;62.00;;;;;;5034111;28;20033;-79
2023/06/15 07:07:07;;;;;;;7.78;2.85;;;23.70;61.30;;;;;;5032930;28;20049;-79
2023/06/15 07:09:33;;;;;;;6.57;2.35;;;23.80;60.80;;;;;;5034938;28;20060;-79
2023/06/15 07:11:59;;;;;;;6.72;2.78;;;24.10;60.50;;;;;;5034270;28;20091;-79
2023/06/15 07:14:24;;;;;;;6.85;2.38;;;24.10;60.10;;;;;;5033087;28;20393;-79
2023/06/15 07:16:50;;;;;;;5.03;3.15;;;24.20;60.00;;;;;;5033553;28;20124;-79
2023/06/15 07:19:16;;;;;;;4.05;2.38;;;24.20;59.80;;;;;;5000222;28;20033;-78
2023/06/15 07:21:42;;;;;;;10.07;2.92;;;24.20;59.50;;;;;;5016480;28;20489;-78
2023/06/15 07:24:07;;;;;;;3.90;2.55;;;24.40;59.50;;;;;;5033637;28;20033;-78
2023/06/15 07:26:33;;;;;;;6.88;2.47;;;24.50;57.80;;;;;;5016245;28;20387;-78
2023/06/15 07:28:58;;;;;;;5.05;2.25;;;24.50;57.50;;;;;;5032576;28;20034;-78
2023/06/15 07:31:24;;;;;;;6.90;2.22;;;24.60;57.00;;;;;;5033570;28;20048;-78
2023/06/15 07:33:53;;;;;;;3.97;2.65;;;24.70;56.80;;;;;;5032806;28;20026;-78
2023/06/15 07:36:19;;;;;;;4.82;2.28;;;24.70;57.20;;;;;;5032913;28;20033;-79
2023/06/15 07:38:45;;;;;;;8.82;2.70;;;24.60;57.30;;;;;;5016501;28;20176;-79
2023/06/15 07:41:11;;;;;;;4.75;2.47;;;24.70;57.50;;;;;;5017006;28;20068;-79
2023/06/15 07:43:36;;;;;;;6.65;2.60;;;24.60;58.40;;;;;;5033312;28;20116;-77
2023/06/15 07:46:02;;;;;;;5.97;2.70;;;24.70;58.30;;;;;;5016610;28;20033;-77
2023/06/15 07:48:28;;;;;;;6.65;2.30;;;24.90;57.30;;;;;;5032611;28;20033;-77
2023/06/15 07:50:53;;;;;;;6.85;2.70;;;25.00;57.00;;;;;;5015901;28;20116;-77
2023/06/15 07:53:19;;;;;;;5.30;2.20;;;25.00;56.80;;;;;;5016231;28;20029;-78
2023/06/15 07:55:45;;;;;;;2.60;2.10;;;25.00;57.40;;;;;;5032414;28;20385;-78
2023/06/15 07:58:10;;;;;;;3.13;2.10;;;25.10;56.60;;;;;;5033942;28;20040;-78
2023/06/15 08:00:36;;;;;;;4.90;2.28;;;25.30;55.90;;;;;;5032493;28;20040;-77
2023/06/15 08:03:02;;;;;;;6.68;2.15;;;25.50;55.40;;;;;;5032195;28;20201;-78
2023/06/15 08:05:27;;;;;;;6.32;1.77;;;25.70;54.60;;;;;;5015986;28;20042;-78
2023/06/15 08:07:53;;;;;;;5.93;2.03;;;25.80;54.10;;;;;;5032261;28;20116;-78
2023/06/15 08:10:19;;;;;;;3.47;1.88;;;25.90;53.10;;;;;;5015901;28;20160;-77
2023/06/15 08:12:44;;;;;;;5.25;2.40;;;26.00;53.20;;;;;;5032165;28;20029;-78
2023/06/15 08:15:10;;;;;;;6.60;1.90;;;26.10;53.10;;;;;;5032089;28;20034;-78
2023/06/15 08:17:36;;;;;;;7.15;2.35;;;26.10;53.40;;;;;;5032604;28;20478;-78
2023/06/15 08:20:07;;;;;;;6.88;2.40;;;26.10;54.10;;;;;;5033445;28;20025;-78
2023/06/15 08:22:33;;;;;;;5.20;2.05;;;26.10;53.70;;;;;;5016241;28;20033;-77
2023/06/15 08:24:59;;;;;;;5.85;2.10;;;26.10;53.60;;;;;;5032233;28;20040;-78
2023/06/15 08:27:24;;;;;;;6.55;1.98;;;26.20;53.00;;;;;;5033237;28;20051;-77
2023/06/15 08:29:51;;;;;;;5.65;2.13;;;26.20;52.50;;;;;;5032256;28;20088;-78
2023/06/15 08:32:16;;;;;;;5.88;2.20;;;26.20;52.50;;;;;;5015382;28;20033;-77
2023/06/15 08:34:43;;;;;;;4.10;1.67;;;26.30;52.50;;;;;;5032569;28;20071;-77
2023/06/15 08:37:11;;;;;;;4.85;1.80;;;26.50;53.20;;;;;;5033010;28;20038;-77
2023/06/15 08:39:39;;;;;;;3.80;1.88;;;26.60;53.10;;;;;;5032525;28;20378;-77
2023/06/15 08:42:07;;;;;;;10.80;2.40;;;26.80;52.40;;;;;;5034597;28;20037;-78
2023/06/15 08:44:34;;;;;;;2.83;1.80;;;26.90;52.60;;;;;;5035880;28;20421;-78
2023/06/15 08:47:01;;;;;;;5.43;2.00;;;26.90;51.80;;;;;;5036950;28;20053;-77
2023/06/15 08:49:30;;;;;;;5.47;1.88;;;26.90;51.80;;;;;;5037514;28;20393;-77
2023/06/15 08:51:58;;;;;;;3.67;2.03;;;26.90;52.20;;;;;;5036951;28;20029;-78
2023/06/15 08:54:27;;;;;;;2.25;1.83;;;27.00;51.90;;;;;;5036961;28;20025;-78
2023/06/15 08:56:53;;;;;;;2.80;1.80;;;27.10;51.90;;;;;;5019924;28;20080;-78
2023/06/15 08:59:19;;;;;;;6.40;2.60;;;27.30;52.40;;;;;;5037287;28;20026;-78
2023/06/15 09:01:45;;;;;;;4.85;2.22;;;27.40;51.40;;;;;;5035803;28;20051;-78
2023/06/15 09:04:11;;;;;;;5.28;2.50;;;27.40;52.50;;;;;;5037518;28;20076;-78
2023/06/15 09:06:38;;;;;;;5.85;1.80;;;27.40;51.00;;;;;;5035031;28;20037;-77
2023/06/15 09:09:04;;;;;;;4.57;1.80;;;27.40;51.10;;;;;;5035085;28;20568;-77
2023/06/15 09:11:37;;;;;;;9.15;1.75;;;27.40;51.20;;;;;;5036645;28;20083;-77
2023/06/15 09:14:08;;;;;;;6.57;2.08;;;27.60;51.70;;;;;;5035959;28;20467;-78
2023/06/15 09:16:34;;;;;;;2.93;1.80;;;27.70;51.50;;;;;;5035865;28;20037;-78
2023/06/15 09:19:00;;;;;;;2.55;1.88;;;27.70;50.80;;;;;;5018814;28;20372;-78
2023/06/15 09:21:28;;;;;;;3.75;2.22;;;27.70;51.70;;;;;;5035171;28;20033;-78
2023/06/15 09:24:03;;;;;;;5.35;1.90;;;27.80;51.90;;;;;;5019577;28;20080;-78
2023/06/15 09:26:29;;;;;;;5.43;1.90;;;27.90;51.20;;;;;;5036583;28;20115;-78
2023/06/15 09:28:57;;;;;;;8.88;1.92;;;27.90;51.20;;;;;;5036300;28;20077;-78
2023/06/15 09:31:34;;;;;;;4.72;1.85;;;28.10;50.60;;;;;;5019135;28;20036;-78
2023/06/15 09:34:11;;;;;;;5.20;2.03;;;28.00;49.10;;;;;;5035309;28;20040;-77
2023/06/15 09:36:44;;;;;;;4.68;1.85;;;27.90;49.10;;;;;;5036551;28;20030;-78
2023/06/15 09:39:12;;;;;;;4.97;1.98;;;27.90;47.50;;;;;;5036104;28;20372;-78
2023/06/15 09:41:56;;;;;;;3.97;1.30;;;28.00;47.50;;;;;;5036161;28;20052;-78
2023/06/15 09:44:23;;;;;;;5.78;2.05;;;28.20;48.00;;;;;;5035603;28;20022;-79
2023/06/15 09:46:51;;;;;;;4.32;1.98;;;28.20;48.10;;;;;;5034452;28;20088;-78
2023/06/15 09:49:27;;;;;;;3.13;1.80;;;28.20;48.10;;;;;;5034613;28;20033;-78
2023/06/15 09:51:54;;;;;;;3.50;1.90;;;28.10;48.40;;;;;;5035855;28;20458;-77
2023/06/15 09:54:22;;;;;;;7.15;2.10;;;28.30;47.10;;;;;;5033711;28;20021;-77
2023/06/15 09:56:52;;;;;;;4.70;1.80;;;28.20;46.80;;;;;;5034724;28;20044;-77
2023/06/15 09:59:20;;;;;;;7.22;1.70;;;27.80;47.20;;;;;;5035785;28;20030;-78
2023/06/15 10:01:48;;;;;;;2.85;1.70;;;27.70;47.80;;;;;;5035805;28;20029;-78
2023/06/15 10:04:19;;;;;;;4.10;1.70;;;27.50;48.00;;;;;;5035584;28;20033;-78
2023/06/15 10:06:49;;;;;;;7.97;1.80;;;27.60;48.60;;;;;;5034914;28;20034;-76
2023/06/15 10:09:21;;;;;;;6.63;1.90;;;27.70;48.30;;;;;;5035605;28;20037;-77
2023/06/15 10:11:50;;;;;;;5.65;1.45;;;27.40;48.50;;;;;;5034293;28;20021;-77
2023/06/15 10:14:23;;;;;;;6.80;1.75;;;27.00;48.90;;;;;;5034942;28;20064;-78
2023/06/15 10:16:55;;;;;;;3.95;1.55;;;26.90;49.50;;;;;;5035180;28;20115;-77
2023/06/15 10:19:21;;;;;;;;;;;26.90;48.80;;;;;;5036230;28;20417;-77
2023/06/15 10:21:48;;;;;;;3.28;1.70;;;27.00;49.20;;;;;;5033403;28;19905;-77
2023/06/15 10:24:16;;;;;;;5.30;1.70;;;27.00;49.20;;;;;;5035316;28;20036;-77
2023/06/15 10:26:43;;;;;;;4.18;1.90;;;27.20;49.10;;;;;;5017278;28;20529;-78
2023/06/15 10:29:31;;;;;;;5.15;2.30;;;27.10;48.00;;;;;;5033854;28;20034;-78
2023/06/15 10:32:14;;;;;;;4.43;1.70;;;27.00;48.90;;;;;;5035745;28;20033;-77
2023/06/15 10:34:56;;;;;;;5.35;1.98;;;26.90;48.20;;;;;;5035328;28;20087;-77
2023/06/15 10:37:55;;;;;;;5.38;1.98;;;26.80;49.10;;;;;;5035196;28;20032;-77
2023/06/15 10:40:36;;;;;;;2.30;1.80;;;26.90;48.30;;;;;;5035635;28;20037;-78
2023/06/15 10:43:02;;;;;;;3.17;1.60;;;26.90;48.00;;;;;;5033287;28;20036;-77
2023/06/15 10:45:32;;;;;;;5.25;1.50;;;27.00;47.90;;;;;;5017524;28;20037;-77
2023/06/15 10:48:01;;;;;;;4.72;1.80;;;27.00;48.20;;;;;;5034291;28;20053;-78
2023/06/15 10:50:36;;;;;;;6.75;1.20;;;27.00;48.50;;;;;;5034658;28;20037;-78
2023/06/15 10:53:02;;;;;;;6.15;1.67;;;27.10;48.70;;;;;;5035526;28;20518;-78
2023/06/15 10:55:28;;;;;;;3.45;1.80;;;27.30;49.00;;;;;;5034715;28;20108;-78
2023/06/15 10:58:27;;;;;;;4.18;2.00;;;27.50;48.40;;;;;;5033206;28;20056;-77
2023/06/15 11:01:08;;;;;;;3.85;1.65;;;27.30;46.80;;;;;;5012234;28;20033;-77
2023/06/15 11:03:34;;;;;;;5.47;1.90;;;26.90;47.30;;;;;;5033221;28;20034;-78
2023/06/15 11:06:22;;;;;;;4.78;2.00;;;26.90;48.20;;;;;;5032163;28;20033;-78
2023/06/15 11:08:53;;;;;;;6.28;1.85;;;27.00;47.70;;;;;;5032933;28;20029;-78
2023/06/15 11:11:36;;;;;;;7.10;1.50;;;27.30;47.60;;;;;;5033381;28;20047;-78
2023/06/15 11:14:07;;;;;;;4.25;1.80;;;27.60;47.40;;;;;;5035061;28;20100;-78
2023/06/15 11:16:35;;;;;;;4.63;1.45;;;27.80;46.00;;;;;;5032567;28;20442;-77
2023/06/15 11:19:13;;;;;;;6.28;1.85;;;28.00;46.30;;;;;;5033303;28;20081;-78
2023/06/15 11:21:40;;;;;;;5.00;1.70;;;28.10;46.30;;;;;;5033672;28;20079;-78
2023/06/15 11:24:07;;;;;;;5.15;1.73;;;28.30;46.60;;;;;;5033071;28;20039;-78
2023/06/15 11:26:34;;;;;;;5.85;1.80;;;28.60;46.10;;;;;;5034441;28;20025;-78
2023/06/15 11:29:03;;;;;;;4.90;1.70;;;28.80;45.30;;;;;;5016610;28;20037;-78
2023/06/15 11:31:31;;;;;;;5.03;1.60;;;28.50;45.00;;;;;;5033988;28;20053;-77
2023/06/15 11:33:57;;;;;;;2.42;1.52;;;28.20;45.60;;;;;;5033626;28;20493;-78
2023/06/15 11:36:23;;;;;;;3.22;1.60;;;28.00;45.70;;;;;;5032545;28;20367;-77
2023/06/15 11:38:49;;;;;;;2.92;1.50;;;27.90;45.40;;;;;;5016651;28;20037;-78
2023/06/15 11:41:15;;;;;;;3.95;1.88;;;27.80;45.40;;;;;;5033883;28;20040;-78
2023/06/15 11:43:48;;;;;;;6.07;1.90;;;27.90;45.40;;;;;;5033596;28;20466;-78
2023/06/15 11:46:21;;;;;;;3.83;1.52;;;28.00;45.50;;;;;;5034040;28;20025;-78
2023/06/15 11:48:48;;;;;;;3.05;1.40;;;28.20;44.60;;;;;;5034677;28;20045;-78
2023/06/15 11:51:15;;;;;;;4.50;1.60;;;28.30;44.60;;;;;;5034050;28;20027;-78
2023/06/15 11:53:43;;;;;;;6.28;1.20;;;28.30;44.00;;;;;;5016785;28;20033;-78
2023/06/15 11:56:13;;;;;;;2.85;1.27;;;28.30;44.90;;;;;;5032896;28;20033;-78
2023/06/15 11:58:40;;;;;;;4.65;1.40;;;28.70;44.60;;;;;;5033261;28;20116;-78
2023/06/15 12:01:06;;;;;;;3.75;1.55;;;29.10;44.50;;;;;;5032928;28;20033;-78
2023/06/15 12:03:37;;;;;;;5.28;2.03;;;29.30;43.00;;;;;;5032315;28;20176;-78
2023/06/15 12:06:03;;;;;;;2.15;1.05;;;29.10;43.00;;;;;;5033603;28;20095;-78
2023/06/15 12:08:30;;;;;;;3.53;1.30;;;28.80;44.20;;;;;;5034077;28;20401;-77
2023/06/15 12:10:56;;;;;;;2.50;1.60;;;28.80;43.70;;;;;;5033466;28;20470;-78
2023/06/15 12:13:23;;;;;;;4.13;1.23;;;28.70;43.80;;;;;;5033508;28;20028;-77
2023/06/15 12:15:50;;;;;;;3.40;1.17;;;28.60;42.90;;;;;;5031980;28;20467;-77
2023/06/15 12:18:17;;;;;;;4.30;1.50;;;28.60;42.80;;;;;;5037318;28;20168;-78
2023/06/15 12:20:44;;;;;;;4.93;1.80;;;28.30;43.00;;;;;;5036825;28;20032;-78
2023/06/15 12:23:10;;;;;;;2.83;1.35;;;28.20;44.00;;;;;;5037861;28;20108;-78
2023/06/15 12:25:45;;;;;;;8.15;1.85;;;28.30;42.30;;;;;;5036098;28;20500;-78
2023/06/15 12:28:20;;;;;;;4.40;1.50;;;28.40;42.60;;;;;;5037722;28;20091;-78
2023/06/15 12:30:47;;;;;;;2.67;1.30;;;28.60;42.20;;;;;;5035998;28;20077;-79
2023/06/15 12:33:36;;;;;;;2.15;1.58;;;29.00;42.30;;;;;;5019384;28;20116;-78
2023/06/15 12:36:07;;;;;;;4.90;1.10;;;29.30;42.00;;;;;;5036539;28;20029;-78
2023/06/15 12:38:32;;;;;;;3.70;1.20;;;29.50;42.30;;;;;;5037563;28;20029;-78
2023/06/15 12:40:59;;;;;;;5.78;1.42;;;29.70;42.20;;;;;;5035999;28;20052;-78
2023/06/15 12:43:25;;;;;;;4.20;0.93;;;29.70;42.20;;;;;;5020048;28;20068;-78
2023/06/15 12:45:52;;;;;;;4.50;1.33;;;29.60;42.10;;;;;;5037287;28;20041;-77
2023/06/15 12:48:19;;;;;;;3.40;1.52;;;29.50;41.90;;;;;;5037075;28;20042;-78
2023/06/15 12:50:45;;;;;;;6.97;1.48;;;29.20;41.30;;;;;;5037253;28;20053;-78